Airfield :
LOGIN :

Register | Disclaimer

   EN    FR    IT 

 










Legend :    VFR   Marginal VFR   IFR   Intensive IFR   Very Intensive IFR
Visi :
Ceiling :
>= 8 km
>= 3000ft
5 to 8 km
1000 to 3000 ft
1500m to 5 km
500 to 1000 ft
800 to 1500m
200 to 500 ft
< 800m
< 200 ft
Symbols :   Thunderstorms  Fog  Heavy snow  Heavy precipitations  Wind > 20 kt
SIGMETs :     Misc.  Thunderstorms  Icing  Turbulence  Mountain Waves  Volcanic Ashes






- Airport Elevation : 392 ft
- IATA code : CDG


LFPG - Paris-Aeroport Charles De Gaulle

CURRENT METAR :
  • 161300Z 13009KT 8000 FEW006 BKN035 BKN089 10/09 Q1003 NOSIG

EXPIRED METARs :
  • 161230Z 14006KT 8000 FEW006 BKN035 BKN089 10/09 Q1003 NOSIG
  • 161200Z 14007KT 110V170 8000 SCT006 BKN032 10/09 Q1004 NOSIG
  • 161130Z 14008KT 100V160 8000 SCT005 BKN035 10/09 Q1004 NOSIG
  • 161100Z 15005KT 120V180 8000 -RA SCT005 BKN035 09/09 Q1004 NOSIG
  • 161030Z 15007KT 100V200 8000 SCT004 BKN037 09/08 Q1005 NOSIG

TAF TAF LFPG
Valid from the 16 at 12:00 until the 17 at 18:00 UTC


161100Z 1612/1718 15010KT 9999 FEW005 SCT035 BKN080 TX14/1715Z TN09/1619Z
BECMG 1614/1616 CAVOK
BECMG 1713/1715 23010G20KT
TEMPO 1716/1718 BKN012
ATIS : +33 1 48 62 10 92



MET'MAP, your aeronautical weather chart ! - Copyright ORBIFLY December 2007 - Disclaimer

ORBIFLY MET'MAP TEAM :

Programming & Development : Alexandra Zaïnal
Concept & original design : Baudouin d'Aumeries
Assistance for programming : Marc-Olivier Méhu
Technical & hardware support : Manuel Goepfert

Contact : metmap@orbifly.com




SOURCES & CREDITS :

   NOAA